Terminal Aerodrome Forecast
Issued by NWS

Home | Current Version | Previous Version | Text Only | Print | Product List | Glossary On
Versions: 1 2 3 4 5 6 7 8 9 10 11 12 13 14 15 16 17 18 19
000
FTUS44 KMAF 062320
TAFCNM
TAF
KCNM 062320Z 0700/0724 12008G18KT P6SM SCT100 OVC250
      TEMPO 0700/0702 VRB15G25KT 6SM TSRA BKN090CB
     FM070200 26008KT P6SM FEW090 OVC200
     FM070500 35022G32KT P6SM FEW080 OVC200
     FM071000 33015KT P6SM OVC019
     FM071500 01009G19KT P6SM SCT040 BKN250=

USA.gov is the U.S. government's official web portal to all federal, state and local government web resources and services.